Aquasco, Maryland
Current Conditions -  °F | °C
As of 11:58 AM on Friday 31 Oct 2014 (Local Time) from KADW Reporting Station
Overcast Overcast  
Wind Chill: 53°   Ceiling: 5500
Heat Index: 53°   Visibility: 10mi
Dew Point: 36°   Wind: 6mph
Humidity: 52%   Direction: 60°ENE
Pressure: 29.95"   Gusts: NA
Location:  38.58°N, 76.73°W
Report Text: KADW 311558Z AUTO 06005KT 10SM OVC055 12/02 A2995 RMK AO2 SLP150 T01170022 $
Loading
Personal Weather Stations






























Interactive Weather Map New forecast layout! Learn more

10-Day Weather Forecast

Advertisements
Track Severe Weather on mobile